Time;durP1;ratioP1;P1;durP2;ratioP2;P2;SDS_P1;SDS_P2;PMS_P1;PMS_P2;Temp;Humidity;BMP_temperature;BMP_pressure;BME280_temperature;BME280_humidity;BME280_pressure;Samples;Min_cycle;Max_cycle;Signal;HPM_P1;HPM_P2
2021/12/15 00:01:40;;;;;;;91.65;6.03;;;22.20;48.50;;;;;;5070108;28;20073;-66
2021/12/15 00:04:08;;;;;;;85.78;6.55;;;22.20;48.70;;;;;;5087568;28;20419;-66
2021/12/15 00:06:37;;;;;;;73.93;5.93;;;22.20;48.70;;;;;;5085331;28;20129;-67
2021/12/15 00:09:07;;;;;;;77.75;5.63;;;22.20;77.00;;;;;;5085158;28;20053;-65
2021/12/15 00:11:37;;;;;;;93.55;6.25;;;22.20;58.20;;;;;;5085557;28;20085;-66
2021/12/15 00:14:13;;;;;;;84.70;6.07;;;22.10;49.00;;;;;;5084210;28;20179;-65
2021/12/15 00:16:40;;;;;;;80.32;8.13;;;22.10;48.90;;;;;;5088337;28;20080;-67
2021/12/15 00:19:07;;;;;;;87.32;8.57;;;22.10;49.00;;;;;;5089325;28;20116;-63
2021/12/15 00:21:35;;;;;;;94.20;9.00;;;22.00;49.00;;;;;;5082756;28;20073;-62
2021/12/15 00:24:03;;;;;;;100.13;8.30;;;22.20;62.90;;;;;;5085752;28;20075;-65
2021/12/15 00:26:29;;;;;;;90.32;7.95;;;21.90;50.20;;;;;;5069883;28;20206;-63
2021/12/15 00:28:56;;;;;;;99.28;10.27;;;21.90;50.40;;;;;;5083469;28;20675;-64
2021/12/15 00:31:23;;;;;;;104.70;10.25;;;21.80;50.50;;;;;;5085642;28;20845;-64
2021/12/15 00:33:50;;;;;;;83.20;9.52;;;21.80;50.70;;;;;;5085047;28;20133;-64
2021/12/15 00:36:17;;;;;;;84.22;8.25;;;21.70;51.10;;;;;;5086794;28;20530;-64
2021/12/15 00:38:44;;;;;;;102.97;7.95;;;21.20;60.80;;;;;;5086306;28;20062;-64
2021/12/15 00:41:11;;;;;;;63.13;6.63;;;21.50;68.20;;;;;;5086306;28;20084;-65
2021/12/15 00:43:38;;;;;;;82.18;7.60;;;21.90;90.90;;;;;;5084784;28;20072;-65
2021/12/15 00:46:06;;;;;;;78.38;9.23;;;21.50;51.20;;;;;;5086430;28;20578;-64
2021/12/15 00:48:33;;;;;;;84.25;8.95;;;21.50;51.30;;;;;;5052558;28;20452;-63
2021/12/15 00:51:00;;;;;;;96.63;9.82;;;21.50;51.30;;;;;;5084235;28;20140;-64
2021/12/15 00:53:27;;;;;;;77.35;9.30;;;21.50;51.30;;;;;;5067329;28;20513;-66
2021/12/15 00:55:53;;;;;;;100.40;8.93;;;21.50;51.40;;;;;;5085585;28;20108;-65
2021/12/15 00:58:20;;;;;;;622.60;33.92;;;21.50;51.70;;;;;;5070636;28;20075;-67
2021/12/15 01:00:52;;;;;;;618.97;35.25;;;21.10;53.70;;;;;;5085342;28;20096;-65
2021/12/15 01:03:19;;;;;;;309.38;15.57;;;20.70;55.30;;;;;;5085704;28;20076;-65
2021/12/15 01:05:49;;;;;;;248.48;13.52;;;20.40;56.30;;;;;;5087505;28;20112;-65
2021/12/15 01:08:19;;;;;;;242.30;12.02;;;20.20;56.70;;;;;;5086147;28;20075;-66
2021/12/15 01:11:13;;;;;;;185.75;9.25;;;19.90;56.50;;;;;;5070782;28;20144;-66
2021/12/15 01:22:01;;;;;;;247.98;14.40;;;19.30;55.60;;;;;;5086154;28;20147;-65
2021/12/15 01:24:27;;;;;;;201.20;10.80;;;19.20;55.70;;;;;;5083442;28;20093;-63
2021/12/15 01:26:54;;;;;;;189.70;9.50;;;19.00;56.00;;;;;;5084518;28;20104;-65
2021/12/15 01:29:20;;;;;;;198.60;9.57;;;18.90;56.50;;;;;;5084622;28;20069;-63
2021/12/15 01:31:47;;;;;;;89.20;3.72;;;18.90;57.10;;;;;;5085014;28;20499;-64
2021/12/15 01:34:13;;;;;;;35.65;2.60;;;18.70;58.30;;;;;;5068118;28;20174;-65
2021/12/15 01:36:40;;;;;;;110.50;4.72;;;18.60;58.50;;;;;;5068249;28;20179;-64
2021/12/15 01:39:06;;;;;;;105.75;5.70;;;18.40;57.60;;;;;;5066714;28;20084;-65
2021/12/15 01:41:33;;;;;;;122.22;6.65;;;18.30;56.30;;;;;;5084429;28;20072;-66
2021/12/15 01:49:37;;;;;;;84.78;4.38;;;17.70;55.00;;;;;;5083454;28;20568;-68
2021/12/15 01:52:09;;;;;;;122.80;5.72;;;17.70;55.50;;;;;;5085749;28;20084;-68
2021/12/15 01:54:38;;;;;;;30.55;2.95;;;17.50;56.10;;;;;;5085146;28;20084;-67
2021/12/15 01:57:06;;;;;;;41.83;3.72;;;17.50;56.50;;;;;;5082815;28;20089;-68
2021/12/15 01:59:33;;;;;;;47.80;3.72;;;17.40;56.40;;;;;;5083569;28;20069;-68
2021/12/15 02:02:00;;;;;;;72.00;4.35;;;17.20;56.20;;;;;;5086403;28;20072;-68
2021/12/15 02:04:27;;;;;;;93.15;7.32;;;17.00;56.30;;;;;;5083025;28;20583;-65
2021/12/15 02:06:54;;;;;;;119.20;7.40;;;16.80;56.70;;;;;;5084367;28;20160;-69
2021/12/15 02:09:46;;;;;;;117.65;8.18;;;16.70;57.10;;;;;;5083938;28;20095;-65
2021/12/15 02:12:11;;;;;;;133.65;8.00;;;16.50;57.40;;;;;;5084916;28;20137;-64
2021/12/15 02:14:38;;;;;;;156.85;7.78;;;16.40;57.60;;;;;;5068277;28;20072;-66
2021/12/15 02:17:04;;;;;;;116.28;7.28;;;16.30;57.40;;;;;;5083834;28;20088;-71
2021/12/15 02:19:31;;;;;;;64.85;7.88;;;16.10;57.30;;;;;;5084900;28;20077;-69
2021/12/15 02:21:59;;;;;;;;;;;16.10;57.60;;;;;;5083709;28;20121;-66
2021/12/15 02:24:26;;;;;;;71.22;4.45;;;16.00;57.90;;;;;;5083333;28;19964;-65
2021/12/15 02:26:58;;;;;;;69.10;4.70;;;16.00;58.20;;;;;;5082798;28;20108;-67
2021/12/15 02:29:26;;;;;;;39.63;3.83;;;15.90;58.70;;;;;;5086180;28;20510;-69
2021/12/15 02:32:07;;;;;;;49.38;3.47;;;15.80;58.90;;;;;;5087968;28;20112;-67
2021/12/15 02:34:56;;;;;;;37.08;2.10;;;15.80;59.10;;;;;;5087026;28;20442;-66
2021/12/15 02:37:20;;;;;;;23.73;2.00;;;15.80;59.60;;;;;;5088911;28;20088;-65
2021/12/15 02:40:03;;;;;;;54.83;2.90;;;15.70;59.60;;;;;;5087842;28;20198;-66
2021/12/15 02:42:36;;;;;;;53.50;3.15;;;15.70;58.90;;;;;;5089280;28;20082;-70
2021/12/15 02:45:09;;;;;;;59.70;3.47;;;15.70;58.60;;;;;;5085606;28;20495;-65
2021/12/15 02:47:37;;;;;;;119.63;5.75;;;15.60;58.60;;;;;;5069207;28;20726;-64
2021/12/15 02:50:06;;;;;;;197.02;9.60;;;15.70;57.70;;;;;;5066022;28;20085;-65
2021/12/15 02:52:34;;;;;;;299.13;14.80;;;15.70;57.30;;;;;;5066716;28;20104;-63
2021/12/15 02:55:00;;;;;;;277.42;15.30;;;15.70;56.30;;;;;;5083362;28;20081;-66
2021/12/15 02:57:27;;;;;;;;;;;15.70;57.20;;;;;;5083794;28;20078;-67
2021/12/15 03:00:01;;;;;;;95.68;5.93;;;15.80;55.80;;;;;;5081313;28;19956;-65
2021/12/15 03:05:17;;;;;;;98.95;4.88;;;15.70;55.30;;;;;;5084655;28;20061;-65
2021/12/15 03:07:55;;;;;;;74.43;4.25;;;15.70;55.50;;;;;;5084520;28;20084;-64
2021/12/15 03:15:53;;;;;;;27.75;2.85;;;15.70;55.10;;;;;;5089675;28;20123;-67
2021/12/15 03:18:26;;;;;;;28.02;2.45;;;15.60;55.30;;;;;;5084387;28;20073;-66
2021/12/15 03:21:13;;;;;;;33.92;2.25;;;15.60;54.90;;;;;;5084668;28;20095;-69
2021/12/15 03:23:51;;;;;;;30.70;3.05;;;15.60;55.10;;;;;;5087570;28;20465;-67
2021/12/15 03:26:24;;;;;;;17.70;2.15;;;15.70;54.90;;;;;;5091483;28;20115;-67
2021/12/15 03:34:39;;;;;;;70.40;4.75;;;15.70;54.60;;;;;;5091678;28;20157;-67
2021/12/15 03:37:22;;;;;;;28.55;1.77;;;15.70;54.80;;;;;;5086740;28;20096;-68
2021/12/15 03:39:58;;;;;;;11.45;1.67;;;15.80;54.50;;;;;;5087701;28;20072;-68
2021/12/15 03:42:30;;;;;;;10.90;1.80;;;15.80;55.10;;;;;;5087428;28;20064;-71
2021/12/15 03:44:57;;;;;;;10.10;1.60;;;15.70;55.50;;;;;;5086100;28;20065;-69
2021/12/15 03:47:30;;;;;;;7.00;1.60;;;15.70;55.40;;;;;;5087582;28;20108;-69
2021/12/15 03:49:58;;;;;;;17.23;1.38;;;15.70;55.60;;;;;;5086453;28;20457;-69
2021/12/15 03:52:25;;;;;;;12.68;1.52;;;15.70;56.20;;;;;;5087616;28;20068;-65
2021/12/15 03:54:52;;;;;;;12.00;1.38;;;15.60;56.20;;;;;;5087847;28;20077;-66
2021/12/15 03:57:20;;;;;;;10.75;1.55;;;15.60;56.20;;;;;;5089453;28;20080;-68
2021/12/15 03:59:47;;;;;;;13.98;1.98;;;15.60;56.00;;;;;;5087500;28;20155;-65
2021/12/15 04:02:18;;;;;;;20.48;2.33;;;15.60;55.90;;;;;;5085893;28;20084;-67
2021/12/15 04:04:46;;;;;;;39.03;3.80;;;15.50;55.90;;;;;;5089022;28;20523;-65
2021/12/15 04:07:14;;;;;;;52.78;3.47;;;15.40;56.20;;;;;;5087815;28;20091;-65
2021/12/15 04:09:40;;;;;;;50.28;3.30;;;15.40;55.80;;;;;;5088992;28;20077;-67
2021/12/15 04:12:08;;;;;;;53.40;3.45;;;15.40;55.20;;;;;;5089635;28;20072;-66
2021/12/15 04:14:42;;;;;;;80.63;5.43;;;15.50;55.00;;;;;;5088515;28;20080;-67
2021/12/15 04:17:26;;;;;;;91.72;6.03;;;15.50;54.50;;;;;;5086860;28;20092;-67
2021/12/15 04:20:03;;;;;;;149.70;7.68;;;15.60;53.70;;;;;;5089608;28;20084;-64
2021/12/15 04:22:29;;;;;;;;;;;15.60;53.40;;;;;;5091666;28;20157;-65
2021/12/15 04:24:57;;;;;;;499.05;28.95;;;15.60;53.10;;;;;;5089006;28;19987;-66
2021/12/15 04:27:24;;;;;;;584.50;35.95;;;15.60;52.60;;;;;;5091317;28;20071;-67
2021/12/15 04:29:53;;;;;;;779.30;53.50;;;15.60;51.60;;;;;;5091131;28;20101;-67
2021/12/15 04:32:38;;;;;;;590.80;34.70;;;15.60;50.50;;;;;;5089735;28;20088;-66
2021/12/15 04:35:05;;;;;;;252.02;16.60;;;15.60;49.70;;;;;;5089885;28;20072;-65
2021/12/15 04:37:31;;;;;;;224.20;11.57;;;15.60;49.60;;;;;;5083348;28;20107;-66
2021/12/15 04:39:58;;;;;;;104.32;7.15;;;15.60;49.60;;;;;;5087190;28;20526;-67
2021/12/15 04:42:26;;;;;;;;;;;15.60;50.00;;;;;;5087141;28;20126;-65
2021/12/15 04:44:56;;;;;;;91.25;5.38;;;15.50;50.30;;;;;;5084717;28;19960;-64
2021/12/15 04:47:23;;;;;;;59.65;4.45;;;15.50;50.50;;;;;;5087732;28;20088;-65
2021/12/15 04:49:54;;;;;;;44.42;3.33;;;15.40;50.40;;;;;;5084607;28;20112;-65
2021/12/15 04:52:24;;;;;;;54.63;3.40;;;15.30;50.50;;;;;;5086495;28;20084;-67
2021/12/15 04:54:51;;;;;;;51.20;4.20;;;15.30;50.40;;;;;;5103681;28;20151;-65
2021/12/15 04:57:20;;;;;;;61.70;3.50;;;15.20;49.90;;;;;;5084677;28;20085;-66
2021/12/15 04:59:47;;;;;;;68.40;4.82;;;15.10;50.10;;;;;;5086376;28;20072;-67
2021/12/15 05:02:15;;;;;;;74.63;5.50;;;15.00;50.20;;;;;;5085750;28;20133;-65
2021/12/15 05:04:42;;;;;;;50.78;3.70;;;14.90;50.30;;;;;;5089231;28;20160;-68
2021/12/15 05:07:09;;;;;;;51.05;4.75;;;14.90;50.20;;;;;;5085293;28;20430;-65
2021/12/15 05:09:36;;;;;;;59.75;4.15;;;14.80;50.20;;;;;;5085643;28;20200;-67
2021/12/15 05:12:04;;;;;;;44.70;3.88;;;14.80;50.30;;;;;;5084007;28;20142;-64
2021/12/15 05:14:31;;;;;;;66.13;4.10;;;14.70;50.40;;;;;;5069277;28;20079;-67
2021/12/15 05:16:58;;;;;;;41.67;4.18;;;14.70;50.30;;;;;;5069346;28;20137;-65
2021/12/15 05:19:27;;;;;;;53.92;4.65;;;14.70;50.40;;;;;;5086030;28;20073;-65
2021/12/15 05:21:56;;;;;;;92.25;5.35;;;14.60;50.40;;;;;;5086273;28;20077;-67
2021/12/15 05:27:00;;;;;;;71.53;6.00;;;14.50;51.40;;;;;;5086531;28;20116;-63
2021/12/15 05:29:27;;;;;;;113.93;6.90;;;14.50;51.40;;;;;;5085228;28;20073;-64
2021/12/15 05:31:54;;;;;;;119.30;7.95;;;14.50;51.40;;;;;;5084223;28;20077;-65
2021/12/15 05:34:21;;;;;;;95.50;7.82;;;14.40;51.50;;;;;;5068696;28;20088;-62
2021/12/15 05:36:52;;;;;;;83.13;6.20;;;14.40;51.50;;;;;;5086056;28;20085;-63
2021/12/15 05:39:19;;;;;;;83.47;5.93;;;14.40;51.60;;;;;;5088053;28;20422;-64
2021/12/15 05:41:46;;;;;;;80.70;6.07;;;14.40;51.80;;;;;;5085232;28;20194;-64
2021/12/15 05:44:13;;;;;;;63.83;4.50;;;14.30;52.00;;;;;;5087955;28;20107;-66
2021/12/15 05:46:39;;;;;;;91.90;6.07;;;14.20;52.20;;;;;;5085943;28;20073;-65
2021/12/15 05:49:06;;;;;;;54.22;5.03;;;14.20;52.40;;;;;;5085337;28;20080;-65
2021/12/15 05:51:33;;;;;;;39.85;3.72;;;14.10;52.50;;;;;;5086191;28;20088;-64
2021/12/15 05:54:00;;;;;;;46.28;3.58;;;14.00;52.70;;;;;;5086250;28;20608;-66
2021/12/15 05:56:26;;;;;;;;;;;13.90;52.40;;;;;;5085024;28;20100;-65
2021/12/15 05:58:52;;;;;;;86.97;6.38;;;13.90;52.00;;;;;;5085522;28;19967;-65
2021/12/15 06:01:19;;;;;;;;;;;13.80;51.60;;;;;;5085497;28;20453;-67
2021/12/15 06:03:45;;;;;;;208.43;11.32;;;13.80;51.30;;;;;;5086459;28;19961;-65
2021/12/15 06:06:12;;;;;;;155.38;7.38;;;13.80;49.80;;;;;;5084585;28;20138;-68
2021/12/15 06:08:38;;;;;;;83.80;5.60;;;13.90;48.50;;;;;;5087184;28;20074;-65
2021/12/15 06:11:04;;;;;;;;;;;13.90;48.30;;;;;;5067929;28;20092;-67
2021/12/15 06:13:31;;;;;;;101.88;6.30;;;13.80;48.70;;;;;;5084486;28;20099;-63
2021/12/15 06:15:58;;;;;;;;;;;13.90;48.80;;;;;;5086403;28;20118;-68
2021/12/15 06:18:25;;;;;;;71.50;4.90;;;13.80;48.80;;;;;;5085587;28;19961;-66
2021/12/15 06:20:55;;;;;;;77.90;4.03;;;13.80;48.70;;;;;;5084641;28;20674;-68
2021/12/15 06:23:23;;;;;;;67.22;3.85;;;13.80;49.00;;;;;;5085221;28;20076;-67
2021/12/15 06:26:04;;;;;;;109.90;6.43;;;13.80;48.80;;;;;;5088655;28;20404;-66
2021/12/15 06:28:31;;;;;;;103.70;6.70;;;13.80;48.80;;;;;;5088767;28;20083;-66
2021/12/15 06:30:58;;;;;;;;;;;13.80;48.70;;;;;;5089355;28;20080;-65
2021/12/15 06:33:27;;;;;;;49.80;3.72;;;13.90;48.60;;;;;;5088614;28;19956;-65
2021/12/15 06:35:58;;;;;;;33.95;2.78;;;13.80;48.90;;;;;;5090183;28;20201;-65
2021/12/15 06:38:28;;;;;;;32.50;2.97;;;13.80;49.20;;;;;;5094392;28;20072;-66
2021/12/15 06:40:55;;;;;;;23.58;1.92;;;13.80;49.70;;;;;;5093279;28;20080;-65
2021/12/15 06:43:23;;;;;;;23.60;2.22;;;13.80;49.70;;;;;;5109752;28;21469;-66
2021/12/15 06:46:19;;;;;;;18.05;2.38;;;13.70;49.50;;;;;;5106719;28;20145;-66
2021/12/15 06:59:44;;;;;;;43.63;3.55;;;13.60;51.40;;;;;;5094351;28;20115;-65
2021/12/15 07:02:11;;;;;;;22.50;2.50;;;13.60;51.70;;;;;;5092519;28;20065;-66
2021/12/15 07:04:37;;;;;;;31.80;2.88;;;13.50;51.60;;;;;;5092726;28;20072;-68
2021/12/15 07:07:04;;;;;;;;;;;13.60;51.70;;;;;;5093102;28;20100;-68
2021/12/15 07:09:33;;;;;;;31.40;2.88;;;13.50;51.40;;;;;;5092840;28;19967;-67
2021/12/15 07:12:00;;;;;;;26.55;2.88;;;13.50;51.10;;;;;;5092537;28;20091;-66
2021/12/15 07:14:27;;;;;;;26.42;2.70;;;13.60;51.20;;;;;;5092537;28;20138;-66
2021/12/15 07:16:55;;;;;;;;;;;13.50;51.20;;;;;;5094028;28;20092;-65
2021/12/15 07:22:28;;;;;;;27.67;3.08;;;13.50;51.50;;;;;;5094124;28;20072;-66
2021/12/15 07:24:54;;;;;;;22.98;2.55;;;13.40;51.40;;;;;;5092446;28;20108;-66
2021/12/15 07:27:20;;;;;;;;;;;13.40;51.30;;;;;;5094472;28;20530;-65
2021/12/15 07:29:46;;;;;;;23.13;3.67;;;13.40;51.00;;;;;;5092188;28;20013;-66
2021/12/15 07:32:13;;;;;;;25.23;4.43;;;13.40;50.70;;;;;;5092114;28;20080;-66
2021/12/15 07:34:40;;;;;;;34.90;4.63;;;13.40;50.80;;;;;;5093831;28;20087;-65
2021/12/15 07:37:06;;;;;;;;;;;13.40;50.80;;;;;;5091393;28;20095;-66
2021/12/15 07:39:35;;;;;;;28.83;2.78;;;13.30;50.90;;;;;;5091232;28;19960;-66
2021/12/15 07:42:06;;;;;;;50.35;3.38;;;13.30;51.20;;;;;;5090965;28;20093;-65
2021/12/15 07:44:33;;;;;;;29.77;3.53;;;13.30;51.60;;;;;;5092219;28;20568;-69
2021/12/15 07:47:00;;;;;;;23.92;2.95;;;13.20;52.40;;;;;;5102683;28;20084;-67
2021/12/15 07:49:29;;;;;;;18.40;2.28;;;13.10;53.00;;;;;;5091299;28;20092;-65
2021/12/15 07:52:01;;;;;;;20.77;2.40;;;13.10;53.10;;;;;;5090946;28;20080;-66
2021/12/15 07:54:37;;;;;;;14.75;2.55;;;13.10;53.40;;;;;;5090217;28;20163;-68
2021/12/15 07:57:08;;;;;;;12.32;1.80;;;13.00;53.00;;;;;;5090778;28;20090;-67
2021/12/15 07:59:35;;;;;;;10.40;2.10;;;13.00;52.70;;;;;;5090046;28;20096;-66
2021/12/15 08:02:01;;;;;;;10.80;1.95;;;13.00;52.50;;;;;;5090565;28;20093;-64
2021/12/15 08:04:28;;;;;;;11.55;2.03;;;12.90;52.60;;;;;;5091812;28;20084;-66
2021/12/15 08:06:54;;;;;;;;;;;12.90;52.70;;;;;;5092023;28;20081;-65
2021/12/15 08:09:22;;;;;;;11.13;1.92;;;12.80;52.80;;;;;;5092106;28;20006;-66
2021/12/15 08:11:50;;;;;;;7.28;1.50;;;12.80;53.00;;;;;;5090281;28;20091;-67
2021/12/15 08:14:17;;;;;;;11.98;1.95;;;12.70;53.00;;;;;;5089911;28;20083;-65
2021/12/15 08:16:43;;;;;;;;;;;12.70;53.00;;;;;;5090584;28;20111;-65
2021/12/15 08:19:14;;;;;;;18.58;3.70;;;12.60;53.10;;;;;;5090445;28;19956;-68
2021/12/15 08:21:41;;;;;;;12.13;1.90;;;12.60;53.30;;;;;;5089331;28;20087;-65
2021/12/15 08:24:07;;;;;;;;;;;12.60;53.20;;;;;;5090211;28;20082;-66
2021/12/15 08:26:33;;;;;;;13.55;2.53;;;12.60;53.30;;;;;;5090679;28;20037;-69
2021/12/15 08:29:00;;;;;;;11.27;1.80;;;12.50;53.40;;;;;;5090468;28;20071;-66
2021/12/15 08:31:26;;;;;;;9.43;1.55;;;12.50;53.30;;;;;;5072713;28;20569;-64
2021/12/15 08:33:52;;;;;;;;;;;12.40;53.00;;;;;;5091271;28;20156;-69
2021/12/15 08:36:19;;;;;;;13.88;1.42;;;12.40;53.10;;;;;;5088612;28;19976;-69
2021/12/15 08:38:46;;;;;;;;;;;12.30;53.00;;;;;;5088983;28;20597;-69
2021/12/15 08:41:26;;;;;;;16.70;1.92;;;12.30;52.50;;;;;;5090080;28;19961;-68
2021/12/15 08:43:53;;;;;;;25.50;2.22;;;12.30;52.20;;;;;;5072149;28;20096;-65
2021/12/15 08:46:24;;;;;;;20.55;2.88;;;12.30;52.10;;;;;;5093344;28;20209;-67
2021/12/15 08:48:52;;;;;;;30.88;3.10;;;12.30;52.00;;;;;;5089482;28;20077;-67
2021/12/15 08:51:26;;;;;;;39.97;3.30;;;12.30;51.80;;;;;;5088607;28;20088;-69
2021/12/15 08:53:55;;;;;;;27.35;3.03;;;12.30;51.90;;;;;;5091284;28;20200;-66
2021/12/15 08:56:22;;;;;;;23.92;3.20;;;12.30;52.40;;;;;;5088166;28;20103;-66
2021/12/15 08:58:49;;;;;;;33.80;3.63;;;12.30;51.60;;;;;;5088690;28;20217;-68
2021/12/15 09:01:15;;;;;;;;;;;12.30;51.70;;;;;;5089149;28;20426;-67
2021/12/15 09:03:43;;;;;;;33.70;3.55;;;12.30;51.90;;;;;;5088268;28;20018;-68
2021/12/15 09:06:11;;;;;;;33.05;2.97;;;12.30;51.80;;;;;;5088253;28;20558;-68
2021/12/15 09:08:39;;;;;;;19.00;2.42;;;12.30;51.90;;;;;;5089564;28;20084;-67
2021/12/15 09:11:09;;;;;;;17.05;2.17;;;12.30;52.00;;;;;;5090076;28;20084;-67
2021/12/15 09:13:37;;;;;;;12.35;2.00;;;12.30;52.10;;;;;;5089327;28;20093;-67
2021/12/15 09:16:07;;;;;;;14.20;1.88;;;12.30;52.20;;;;;;5087979;28;20084;-68
2021/12/15 09:18:35;;;;;;;8.73;1.58;;;12.20;52.30;;;;;;5072678;28;20080;-68
2021/12/15 09:21:03;;;;;;;11.23;1.90;;;12.20;52.40;;;;;;5088839;28;20069;-68
2021/12/15 09:23:30;;;;;;;6.28;1.23;;;12.20;52.40;;;;;;5089519;28;20069;-67
2021/12/15 09:25:56;;;;;;;11.50;2.22;;;12.10;52.60;;;;;;5088018;28;20123;-67
2021/12/15 09:28:25;;;;;;;11.02;1.85;;;12.00;53.20;;;;;;5088249;28;20073;-66
2021/12/15 09:30:54;;;;;;;6.38;1.35;;;11.80;53.50;;;;;;5089653;28;20069;-67
2021/12/15 09:33:26;;;;;;;8.88;1.55;;;11.80;53.20;;;;;;5089177;28;20144;-68
2021/12/15 09:35:53;;;;;;;8.43;1.50;;;11.80;53.10;;;;;;5091177;28;20091;-68
2021/12/15 09:38:22;;;;;;;7.70;1.45;;;11.80;53.20;;;;;;5087717;28;20089;-67
2021/12/15 09:40:51;;;;;;;5.22;1.40;;;11.80;53.40;;;;;;5086272;28;20084;-68
2021/12/15 09:43:19;;;;;;;7.57;1.50;;;11.90;53.50;;;;;;5088716;28;20091;-66
2021/12/15 09:46:00;;;;;;;9.65;1.73;;;11.90;53.50;;;;;;5093117;28;20073;-68
2021/12/15 10:02:29;;;;;;;8.55;1.65;;;11.80;54.30;;;;;;5088885;28;20075;-67
2021/12/15 10:10:40;;;;;;;13.80;1.73;;;11.80;54.80;;;;;;5089169;28;20236;-66
2021/12/15 10:19:34;;;;;;;11.20;1.88;;;11.80;55.20;;;;;;5088924;28;20075;-69
2021/12/15 10:22:13;;;;;;;7.47;1.80;;;11.80;55.10;;;;;;5092713;28;20069;-68
2021/12/15 10:24:53;;;;;;;10.93;1.48;;;11.80;55.10;;;;;;5090553;28;20198;-68
2021/12/15 10:27:48;;;;;;;7.88;1.50;;;11.80;55.20;;;;;;5086108;28;20100;-69
2021/12/15 10:30:26;;;;;;;8.25;1.95;;;11.80;55.30;;;;;;5087332;28;20179;-69
2021/12/15 10:33:00;;;;;;;10.68;1.75;;;11.70;55.20;;;;;;5086293;28;20132;-69
2021/12/15 10:35:29;;;;;;;8.65;1.70;;;11.80;55.20;;;;;;5090956;28;20087;-68
2021/12/15 10:38:18;;;;;;;10.85;1.75;;;11.70;55.10;;;;;;5084727;28;20104;-65
2021/12/15 10:40:54;;;;;;;6.00;1.50;;;11.80;55.00;;;;;;5084161;28;20523;-66
2021/12/15 10:43:23;;;;;;;6.78;1.40;;;11.80;54.80;;;;;;5083208;28;20091;-68
2021/12/15 10:45:57;;;;;;;6.30;1.40;;;11.90;54.50;;;;;;5083345;28;20069;-68
2021/12/15 10:48:37;;;;;;;7.95;1.70;;;11.90;54.30;;;;;;5080052;28;20103;-67
2021/12/15 10:51:20;;;;;;;8.23;1.67;;;11.90;54.30;;;;;;5084425;28;20085;-66
2021/12/15 10:53:48;;;;;;;6.13;1.70;;;11.90;54.40;;;;;;5083157;28;20131;-63
2021/12/15 10:56:28;;;;;;;6.00;1.35;;;11.90;54.40;;;;;;5081270;28;20180;-64
2021/12/15 10:58:59;;;;;;;13.40;1.73;;;11.90;54.50;;;;;;5081998;28;20068;-65
2021/12/15 11:01:44;;;;;;;7.38;1.30;;;11.90;54.60;;;;;;5083988;28;20152;-66
2021/12/15 11:04:22;;;;;;;7.63;1.67;;;11.90;54.60;;;;;;5082130;28;20092;-68
2021/12/15 11:07:18;;;;;;;5.32;1.65;;;11.90;54.70;;;;;;5068902;28;20073;-66
2021/12/15 11:10:13;;;;;;;9.25;1.88;;;11.90;54.60;;;;;;5082068;28;20116;-66
2021/12/15 11:12:53;;;;;;;7.28;1.38;;;12.00;54.50;;;;;;5082933;28;20076;-65
2021/12/15 11:15:26;;;;;;;6.07;1.65;;;11.90;54.40;;;;;;5066621;28;20069;-65
2021/12/15 11:17:54;;;;;;;10.45;1.73;;;12.00;54.30;;;;;;5080839;28;20092;-67
2021/12/15 11:20:28;;;;;;;7.82;1.35;;;11.90;54.30;;;;;;5082871;28;20076;-67
2021/12/15 11:23:07;;;;;;;8.07;1.52;;;11.90;54.20;;;;;;5083549;28;20441;-66
2021/12/15 11:25:36;;;;;;;5.72;1.35;;;11.90;54.20;;;;;;5080736;28;20147;-66
2021/12/15 11:28:16;;;;;;;7.75;1.42;;;11.80;54.30;;;;;;5083409;28;20077;-66
2021/12/15 11:30:54;;;;;;;9.32;1.85;;;11.90;54.20;;;;;;5085978;28;20096;-65
2021/12/15 11:33:32;;;;;;;6.28;1.40;;;11.90;54.20;;;;;;5087469;28;20081;-65
2021/12/15 11:36:03;;;;;;;5.57;1.40;;;11.90;54.30;;;;;;5086486;28;20555;-65
2021/12/15 11:38:53;;;;;;;7.70;1.48;;;11.80;54.20;;;;;;5085533;28;20081;-65
2021/12/15 11:41:26;;;;;;;7.07;1.80;;;11.80;54.30;;;;;;5075072;28;20092;-65
2021/12/15 11:44:02;;;;;;;5.40;1.05;;;11.80;54.50;;;;;;5069877;28;20118;-66
2021/12/15 11:46:30;;;;;;;6.50;1.80;;;11.70;54.80;;;;;;5086701;28;20080;-67
2021/12/15 11:49:10;;;;;;;5.25;1.40;;;11.70;54.70;;;;;;5091242;28;20100;-66
2021/12/15 11:52:04;;;;;;;10.07;1.38;;;11.60;54.60;;;;;;5089430;28;20084;-67
2021/12/15 11:54:34;;;;;;;7.30;1.75;;;11.60;54.90;;;;;;5073916;28;20525;-66
2021/12/15 11:57:08;;;;;;;10.23;1.65;;;11.50;55.00;;;;;;5074638;28;20141;-67
2021/12/15 11:59:40;;;;;;;11.10;2.03;;;11.50;55.20;;;;;;5074514;28;20073;-65
2021/12/15 12:02:21;;;;;;;9.18;1.38;;;11.50;55.30;;;;;;5092500;28;20075;-67
2021/12/15 12:04:52;;;;;;;4.25;1.10;;;11.40;55.40;;;;;;5091175;28;20107;-65
2021/12/15 12:07:38;;;;;;;11.57;2.47;;;11.40;55.30;;;;;;5074577;28;20081;-68
2021/12/15 12:10:10;;;;;;;13.80;2.38;;;11.40;55.50;;;;;;5090102;28;20104;-65
2021/12/15 12:12:51;;;;;;;4.40;1.33;;;11.40;55.70;;;;;;5090311;28;20122;-66
2021/12/15 12:15:27;;;;;;;9.05;1.58;;;11.50;55.30;;;;;;5090090;28;20087;-68
2021/12/15 12:18:00;;;;;;;9.43;1.40;;;11.40;55.30;;;;;;5091402;28;20095;-67
2021/12/15 12:20:39;;;;;;;5.35;1.17;;;11.40;55.40;;;;;;5088100;28;20110;-65
2021/12/15 12:23:09;;;;;;;9.63;1.75;;;11.30;55.60;;;;;;5092087;28;20155;-67
2021/12/15 12:26:03;;;;;;;10.07;1.48;;;11.20;55.90;;;;;;5090733;28;20174;-66
2021/12/15 12:28:37;;;;;;;5.72;1.70;;;11.10;56.30;;;;;;5080967;28;20531;-69
2021/12/15 12:31:12;;;;;;;9.60;1.73;;;11.10;56.70;;;;;;5090622;28;20125;-66
2021/12/15 12:33:38;;;;;;;7.05;1.60;;;11.00;56.80;;;;;;5089919;28;20111;-65
2021/12/15 12:36:07;;;;;;;11.60;1.67;;;11.00;56.80;;;;;;5091351;28;20092;-65
2021/12/15 12:38:37;;;;;;;4.30;1.70;;;11.00;57.00;;;;;;5093697;28;20076;-69
2021/12/15 12:41:11;;;;;;;11.68;1.60;;;10.90;56.90;;;;;;5090762;28;20089;-65
2021/12/15 12:43:49;;;;;;;6.30;1.42;;;10.90;56.70;;;;;;5089490;28;20134;-66
2021/12/15 13:00:56;;;;;;;6.25;1.50;;;10.70;57.90;;;;;;5048775;28;20143;-66
2021/12/15 13:03:25;;;;;;;12.60;2.45;;;10.70;57.60;;;;;;5048954;28;20084;-68
2021/12/15 13:05:59;;;;;;;11.57;1.90;;;10.70;57.50;;;;;;5049389;28;20085;-67
2021/12/15 13:08:59;;;;;;;11.60;1.52;;;10.70;57.30;;;;;;5048668;28;20079;-66
2021/12/15 13:11:34;;;;;;;12.60;1.60;;;10.70;57.50;;;;;;5048243;28;20587;-65
2021/12/15 13:14:06;;;;;;;10.13;1.80;;;10.70;57.70;;;;;;5049286;28;20458;-65
2021/12/15 13:16:38;;;;;;;14.93;2.33;;;10.60;57.90;;;;;;5049018;28;20093;-65
2021/12/15 13:19:15;;;;;;;10.60;1.95;;;10.60;58.00;;;;;;5048739;28;20490;-67
2021/12/15 13:21:44;;;;;;;12.50;2.05;;;10.50;58.30;;;;;;5049710;28;20459;-66
2021/12/15 13:30:39;;;;;;;13.93;2.17;;;10.60;57.80;;;;;;5088873;28;20189;-65
2021/12/15 13:33:16;;;;;;;12.20;2.08;;;10.50;57.80;;;;;;5090483;28;20088;-66
2021/12/15 13:35:52;;;;;;;;;;;10.50;58.00;;;;;;5074151;28;20088;-65
2021/12/15 13:38:36;;;;;;;7.47;2.15;;;10.40;58.20;;;;;;5089469;28;20035;-67
2021/12/15 13:41:19;;;;;;;9.50;1.88;;;10.40;58.90;;;;;;5089079;28;20189;-66
2021/12/15 13:43:47;;;;;;;6.18;1.88;;;10.30;59.10;;;;;;5088776;28;20087;-65
2021/12/15 13:46:32;;;;;;;8.20;1.95;;;10.30;59.00;;;;;;5090041;28;20119;-66
2021/12/15 13:49:05;;;;;;;7.50;2.25;;;10.20;58.90;;;;;;5088331;28;20076;-68
2021/12/15 13:51:57;;;;;;;9.75;2.30;;;10.30;58.80;;;;;;5087032;28;20141;-67
2021/12/15 13:54:33;;;;;;;13.65;2.00;;;10.30;58.80;;;;;;5081854;28;20145;-65
2021/12/15 13:57:13;;;;;;;5.95;1.42;;;10.30;58.90;;;;;;5088995;28;20084;-67
2021/12/15 13:59:55;;;;;;;7.10;1.85;;;10.20;59.20;;;;;;5089541;28;20171;-66
2021/12/15 14:02:34;;;;;;;8.13;1.60;;;10.20;59.50;;;;;;5071323;28;20072;-65
2021/12/15 14:05:18;;;;;;;11.30;1.98;;;10.20;59.20;;;;;;5087300;28;20729;-66
2021/12/15 14:07:47;;;;;;;7.25;1.73;;;10.20;59.20;;;;;;5088980;28;20558;-66
2021/12/15 14:10:13;;;;;;;13.00;1.45;;;10.30;59.20;;;;;;5071292;28;20099;-65
2021/12/15 14:12:46;;;;;;;9.68;1.73;;;10.30;59.30;;;;;;5089151;28;20072;-68
2021/12/15 14:15:25;;;;;;;11.15;1.60;;;10.30;59.30;;;;;;5091558;28;20748;-65
2021/12/15 14:18:16;;;;;;;7.32;1.33;;;10.30;60.10;;;;;;5090455;28;20104;-65
2021/12/15 14:20:47;;;;;;;10.15;1.65;;;10.30;60.30;;;;;;5087026;28;20096;-65
2021/12/15 14:23:18;;;;;;;11.50;1.60;;;10.30;59.40;;;;;;5090105;28;20077;-65
2021/12/15 14:25:46;;;;;;;6.68;1.30;;;10.30;59.40;;;;;;5087328;28;20108;-67
2021/12/15 14:28:14;;;;;;;7.00;1.35;;;10.20;59.30;;;;;;5088966;28;21065;-67
2021/12/15 14:30:43;;;;;;;11.10;1.73;;;10.20;59.50;;;;;;5089967;28;20912;-65
2021/12/15 14:33:31;;;;;;;10.45;1.60;;;10.20;59.90;;;;;;5088973;28;20442;-67
2021/12/15 14:36:06;;;;;;;11.48;1.73;;;10.20;60.70;;;;;;5088068;28;20474;-65